createdAt,value
2022-08-02T00:00:40.886Z,12.00
2022-08-02T00:03:09.041Z,12.00
2022-08-02T00:05:38.807Z,12.00
2022-08-02T00:08:08.542Z,11.90
2022-08-02T00:10:36.666Z,11.90
2022-08-02T00:13:05.562Z,11.90
2022-08-02T00:15:33.668Z,11.90
2022-08-02T00:18:01.793Z,11.90
2022-08-02T00:20:30.069Z,11.90
2022-08-02T00:22:59.627Z,11.90
2022-08-02T00:25:27.739Z,11.90
2022-08-02T00:27:55.887Z,11.90
2022-08-02T00:30:24.169Z,11.90
2022-08-02T00:32:52.331Z,12.00
2022-08-02T00:35:20.733Z,12.00
2022-08-02T00:37:48.830Z,12.10
2022-08-02T00:40:23.206Z,12.10
2022-08-02T00:43:04.281Z,12.10
2022-08-02T00:46:02.660Z,12.10
2022-08-02T00:48:20.857Z,12.10
2022-08-02T00:50:48.957Z,12.10
2022-08-02T00:53:17.065Z,12.10
2022-08-02T00:55:46.503Z,12.00
2022-08-02T00:58:14.726Z,12.00
2022-08-02T01:00:43.059Z,12.00
2022-08-02T01:03:11.247Z,12.00
2022-08-02T01:06:10.425Z,12.00
2022-08-02T01:08:29.594Z,12.00
2022-08-02T01:11:01.336Z,11.90
2022-08-02T01:13:29.581Z,11.90
2022-08-02T01:16:05.464Z,11.90
2022-08-02T01:18:36.822Z,11.90
2022-08-02T01:21:24.609Z,11.80
2022-08-02T01:24:09.851Z,11.80
2022-08-02T01:26:48.054Z,11.80
2022-08-02T01:29:23.729Z,11.70
2022-08-02T01:31:56.805Z,11.70
2022-08-02T01:34:32.285Z,11.60
2022-08-02T01:37:08.520Z,11.60
2022-08-02T01:39:39.446Z,11.50
2022-08-02T01:42:09.777Z,11.60
2022-08-02T01:44:43.370Z,11.50
2022-08-02T01:47:18.805Z,11.50
2022-08-02T01:49:49.086Z,11.50
2022-08-02T01:52:26.154Z,11.50
2022-08-02T01:55:00.551Z,11.40
2022-08-02T01:57:32.314Z,11.50
2022-08-02T02:00:02.552Z,11.50
2022-08-02T02:02:33.282Z,11.50
2022-08-02T02:05:03.119Z,11.50
2022-08-02T02:07:34.297Z,11.50
2022-08-02T02:10:03.991Z,11.50
2022-08-02T02:12:35.253Z,11.50
2022-08-02T02:15:05.866Z,11.40
2022-08-02T02:17:53.054Z,11.40
2022-08-02T02:20:24.610Z,11.40
2022-08-02T02:22:53.136Z,11.40
2022-08-02T02:25:31.632Z,11.40
2022-08-02T02:28:08.453Z,11.40
2022-08-02T02:30:41.011Z,11.40
2022-08-02T02:33:10.877Z,11.40
2022-08-02T02:35:40.482Z,11.40
2022-08-02T02:38:14.613Z,11.40
2022-08-02T02:40:44.475Z,11.40
2022-08-02T02:43:14.018Z,11.40
2022-08-02T02:45:44.665Z,11.30
2022-08-02T02:48:13.504Z,11.30
2022-08-02T02:50:43.972Z,11.40
2022-08-02T02:53:13.776Z,11.40
2022-08-02T02:56:01.757Z,11.40
2022-08-02T02:58:31.665Z,11.50
2022-08-02T03:01:19.198Z,11.50
2022-08-02T03:03:47.827Z,11.50
2022-08-02T03:06:16.157Z,11.40
2022-08-02T03:08:44.788Z,11.40
2022-08-02T03:11:15.741Z,11.40
2022-08-02T03:13:43.930Z,11.40
2022-08-02T03:16:14.456Z,11.40
2022-08-02T03:18:44.629Z,11.40
2022-08-02T03:21:14.554Z,11.40
2022-08-02T03:23:43.770Z,11.40
2022-08-02T03:26:12.190Z,11.40
2022-08-02T03:28:40.357Z,11.30
2022-08-02T03:31:09.117Z,11.30
2022-08-02T03:33:40.195Z,11.30
2022-08-02T03:36:12.450Z,11.30
2022-08-02T03:38:41.785Z,11.30
2022-08-02T03:41:12.270Z,11.30
2022-08-02T03:43:41.597Z,11.30
2022-08-02T03:46:10.924Z,11.30
2022-08-02T03:48:40.841Z,11.40
2022-08-02T03:51:09.644Z,11.40
2022-08-02T03:53:40.205Z,11.40
2022-08-02T03:56:08.951Z,11.50
2022-08-02T03:58:37.110Z,11.70
2022-08-02T04:01:05.445Z,11.90
2022-08-02T04:03:33.721Z,12.10
2022-08-02T04:06:04.561Z,12.30
2022-08-02T04:08:37.540Z,12.50
2022-08-02T04:11:23.610Z,12.90
2022-08-02T04:13:51.983Z,13.30
2022-08-02T04:16:22.522Z,13.80
2022-08-02T04:18:56.955Z,14.10
2022-08-02T04:21:42.605Z,14.30
2022-08-02T04:24:20.467Z,14.40
2022-08-02T04:26:54.270Z,14.40
2022-08-02T04:29:23.481Z,14.40
2022-08-02T04:31:52.741Z,14.60
2022-08-02T04:34:21.270Z,14.90
2022-08-02T04:36:51.522Z,15.20
2022-08-02T04:39:20.522Z,15.40
2022-08-02T04:41:48.918Z,15.70
2022-08-02T04:44:17.026Z,16.30
2022-08-02T04:46:46.502Z,17.10
2022-08-02T04:49:14.791Z,17.50
2022-08-02T04:51:44.108Z,18.10
2022-08-02T04:54:13.804Z,18.40
2022-08-02T04:56:42.163Z,18.80
2022-08-02T04:59:10.511Z,19.10
2022-08-02T05:01:39.427Z,19.20
2022-08-02T05:04:07.562Z,19.80
2022-08-02T05:06:35.658Z,19.90
2022-08-02T05:09:03.858Z,19.60
2022-08-02T05:11:36.609Z,19.50
2022-08-02T05:14:06.495Z,19.20
2022-08-02T05:16:34.816Z,18.70
2022-08-02T05:19:03.464Z,18.30
2022-08-02T05:21:32.640Z,17.90
2022-08-02T05:24:00.894Z,17.70
2022-08-02T05:26:29.037Z,17.50
2022-08-02T05:28:58.550Z,17.30
2022-08-02T05:31:26.688Z,17.20
2022-08-02T05:33:54.875Z,17.20
2022-08-02T05:36:23.077Z,17.50
2022-08-02T05:38:52.982Z,18.30
2022-08-02T05:41:27.963Z,18.90
2022-08-02T05:43:56.139Z,19.10
2022-08-02T05:46:25.658Z,19.20
2022-08-02T05:48:53.968Z,19.10
2022-08-02T05:51:27.306Z,19.00
2022-08-02T05:54:04.304Z,19.50
2022-08-02T05:56:36.422Z,19.80
2022-08-02T05:59:11.224Z,20.20
2022-08-02T06:01:44.132Z,20.50
2022-08-02T06:04:21.769Z,20.70
2022-08-02T06:06:53.939Z,20.80
2022-08-02T06:09:26.991Z,20.70
2022-08-02T06:12:02.825Z,20.50
2022-08-02T06:14:34.123Z,20.20
2022-08-02T06:17:05.845Z,20.00
2022-08-02T06:19:50.845Z,19.80
2022-08-02T06:22:34.022Z,19.80
2022-08-02T06:25:11.604Z,20.00
2022-08-02T06:27:56.487Z,20.90
2022-08-02T06:30:25.060Z,21.20
2022-08-02T06:32:56.595Z,21.10
2022-08-02T06:35:36.725Z,20.90
2022-08-02T06:38:05.685Z,20.90
2022-08-02T06:40:40.922Z,20.60
2022-08-02T06:43:14.066Z,20.70
2022-08-02T06:45:42.393Z,22.00
2022-08-02T06:48:12.174Z,23.60
2022-08-02T06:50:42.177Z,24.70
2022-08-02T06:53:11.295Z,25.10
2022-08-02T06:55:43.946Z,24.30
2022-08-02T06:58:13.200Z,23.80
2022-08-02T07:00:41.862Z,23.30
2022-08-02T07:03:11.426Z,23.10
2022-08-02T07:05:39.804Z,23.40
2022-08-02T07:08:07.963Z,24.50
2022-08-02T07:10:36.034Z,26.10
2022-08-02T07:13:04.113Z,27.20
2022-08-02T07:15:32.223Z,27.90
2022-08-02T07:18:00.392Z,29.20
2022-08-02T07:20:30.201Z,30.40
2022-08-02T07:22:58.384Z,31.50
2022-08-02T07:25:26.493Z,32.60
2022-08-02T07:28:23.587Z,33.00
2022-08-02T07:30:52.599Z,32.10
2022-08-02T07:33:38.187Z,32.70
2022-08-02T07:36:13.900Z,32.40
2022-08-02T07:38:50.931Z,31.60
2022-08-02T07:41:19.843Z,32.00
2022-08-02T07:43:47.902Z,31.30
2022-08-02T07:46:15.967Z,30.80
2022-08-02T07:48:44.072Z,31.50
2022-08-02T07:51:17.203Z,32.60
2022-08-02T07:53:51.273Z,32.80
2022-08-02T07:56:30.245Z,33.30
2022-08-02T07:58:58.285Z,33.60
2022-08-02T08:01:26.450Z,33.50
2022-08-02T08:03:54.573Z,33.80
2022-08-02T08:06:28.473Z,33.60
2022-08-02T08:08:57.282Z,33.30
2022-08-02T08:11:25.680Z,34.70
2022-08-02T08:13:53.921Z,34.90
2022-08-02T08:16:22.199Z,34.80
2022-08-02T08:18:50.346Z,33.80
2022-08-02T08:21:18.463Z,33.50
2022-08-02T08:23:47.911Z,33.70
2022-08-02T08:26:17.278Z,35.10
2022-08-02T08:28:45.347Z,35.10
2022-08-02T08:31:13.581Z,36.00
2022-08-02T08:33:41.798Z,37.10
2022-08-02T08:36:10.057Z,36.40
2022-08-02T08:38:38.263Z,37.80
2022-08-02T08:41:08.424Z,37.30
2022-08-02T08:43:36.597Z,36.90
2022-08-02T08:46:06.097Z,36.80
2022-08-02T08:48:37.708Z,36.80
2022-08-02T08:51:11.587Z,36.30
2022-08-02T08:53:43.488Z,36.60
2022-08-02T08:56:16.534Z,37.20
2022-08-02T08:58:47.441Z,36.70
2022-08-02T09:01:16.951Z,36.80
2022-08-02T09:03:45.533Z,36.80
2022-08-02T09:06:13.646Z,36.70
2022-08-02T09:08:41.683Z,36.40
2022-08-02T09:11:18.108Z,35.90
2022-08-02T09:13:52.110Z,35.90
2022-08-02T09:16:33.345Z,35.80
2022-08-02T09:19:02.601Z,36.30
2022-08-02T09:21:37.480Z,37.00
2022-08-02T09:24:18.652Z,36.80
2022-08-02T09:26:48.985Z,35.70
2022-08-02T09:29:17.957Z,34.60
2022-08-02T09:31:49.931Z,34.40
2022-08-02T09:34:19.962Z,32.10
2022-08-02T09:36:54.568Z,31.80
2022-08-02T09:39:23.928Z,31.60
2022-08-02T09:41:53.491Z,32.40
2022-08-02T09:44:21.613Z,30.90
2022-08-02T09:46:49.722Z,29.50
2022-08-02T09:49:19.821Z,30.10
2022-08-02T09:51:51.669Z,31.40
2022-08-02T09:54:21.055Z,32.60
2022-08-02T09:56:50.592Z,33.50
2022-08-02T09:59:22.953Z,34.10
2022-08-02T10:02:01.523Z,33.50
2022-08-02T10:04:34.535Z,32.10
2022-08-02T10:07:21.666Z,30.80
2022-08-02T10:09:51.489Z,29.70
2022-08-02T10:12:22.342Z,30.30
2022-08-02T10:14:53.209Z,32.10
2022-08-02T10:17:22.834Z,33.20
2022-08-02T10:20:03.270Z,34.20
2022-08-02T10:22:34.421Z,33.70
2022-08-02T10:25:04.114Z,32.50
2022-08-02T10:27:49.258Z,32.10
2022-08-02T10:30:26.076Z,33.30
2022-08-02T10:32:56.190Z,33.80
2022-08-02T10:35:26.700Z,33.10
2022-08-02T10:37:57.275Z,31.90
2022-08-02T10:40:26.886Z,31.90
2022-08-02T10:42:59.563Z,31.90
2022-08-02T10:45:30.627Z,32.10
2022-08-02T10:48:00.579Z,31.40
2022-08-02T10:50:56.584Z,30.40
2022-08-02T10:53:26.775Z,29.50
2022-08-02T10:55:55.847Z,29.10
2022-08-02T10:58:29.330Z,28.70
2022-08-02T11:01:00.078Z,28.30
2022-08-02T11:03:42.418Z,27.20
2022-08-02T11:06:25.160Z,27.50
2022-08-02T11:09:33.228Z,27.80
2022-08-02T11:12:04.425Z,27.90
2022-08-02T11:14:33.792Z,28.20
2022-08-02T11:17:11.679Z,28.30
2022-08-02T11:20:18.082Z,28.40
2022-08-02T11:22:48.123Z,28.30
2022-08-02T11:26:00.985Z,28.10
2022-08-02T11:28:24.765Z,28.00
2022-08-02T11:30:58.622Z,27.70
2022-08-02T11:33:33.740Z,27.20
2022-08-02T11:36:04.569Z,27.10
2022-08-02T11:38:32.766Z,27.40
2022-08-02T11:41:06.030Z,27.80
2022-08-02T11:43:38.882Z,28.00
2022-08-02T11:46:14.214Z,28.20
2022-08-02T11:48:44.650Z,28.20
2022-08-02T11:51:14.708Z,28.00
2022-08-02T11:53:44.624Z,27.90
2022-08-02T11:56:13.477Z,28.10
2022-08-02T11:59:03.126Z,28.20
2022-08-02T12:01:32.330Z,28.50
2022-08-02T12:04:08.253Z,28.60
2022-08-02T12:06:36.482Z,28.60
2022-08-02T12:09:06.608Z,28.80
2022-08-02T12:11:50.112Z,28.90
2022-08-02T12:14:19.213Z,28.70
2022-08-02T12:17:06.610Z,28.30
2022-08-02T12:19:37.098Z,28.20
2022-08-02T12:22:10.947Z,27.90
2022-08-02T12:24:40.715Z,27.80
2022-08-02T12:27:09.405Z,27.90
2022-08-02T12:29:58.659Z,27.70
2022-08-02T12:32:27.509Z,27.20
2022-08-02T12:35:26.423Z,27.30
2022-08-02T12:37:55.171Z,27.40
2022-08-02T12:40:26.607Z,27.80
2022-08-02T12:42:58.770Z,28.10
2022-08-02T12:45:38.360Z,28.60
2022-08-02T12:48:10.371Z,28.90
2022-08-02T12:50:40.419Z,28.90
2022-08-02T12:53:10.725Z,29.00
2022-08-02T12:56:02.453Z,29.30
2022-08-02T12:58:32.235Z,29.20
2022-08-02T13:01:01.530Z,29.50
2022-08-02T13:04:09.607Z,29.60
2022-08-02T13:06:39.869Z,29.20
2022-08-02T13:09:17.236Z,29.20
2022-08-02T13:11:46.239Z,29.30
2022-08-02T13:14:14.948Z,29.50
2022-08-02T13:16:44.407Z,29.50
2022-08-02T13:19:13.229Z,29.30
2022-08-02T13:22:02.556Z,29.30
2022-08-02T13:24:38.788Z,29.20
2022-08-02T13:27:10.013Z,29.10
2022-08-02T13:29:38.733Z,29.00
2022-08-02T13:32:07.305Z,28.90
2022-08-02T13:34:35.455Z,29.00
2022-08-02T13:37:05.678Z,29.10
2022-08-02T13:39:33.825Z,28.80
2022-08-02T13:42:01.908Z,28.70
2022-08-02T13:44:30.070Z,28.90
2022-08-02T13:46:58.431Z,29.20
2022-08-02T13:49:50.989Z,29.30
2022-08-02T13:52:16.531Z,29.00
2022-08-02T13:54:44.803Z,29.00
2022-08-02T13:57:13.086Z,29.30
2022-08-02T13:59:56.788Z,29.50
2022-08-02T14:02:28.265Z,29.40
2022-08-02T14:04:57.093Z,29.50
2022-08-02T14:07:26.590Z,29.40
2022-08-02T14:09:54.676Z,29.70
2022-08-02T14:12:22.759Z,29.20
2022-08-02T14:14:51.159Z,29.20
2022-08-02T14:17:19.851Z,29.00
2022-08-02T14:19:48.219Z,28.70
2022-08-02T14:22:16.384Z,29.00
2022-08-02T14:24:45.895Z,29.10
2022-08-02T14:27:15.676Z,29.00
2022-08-02T14:29:43.831Z,28.60
2022-08-02T14:32:12.304Z,28.70
2022-08-02T14:34:40.586Z,28.90
2022-08-02T14:37:08.722Z,28.70
2022-08-02T14:39:43.537Z,28.70
2022-08-02T14:42:26.578Z,28.70
2022-08-02T14:44:54.739Z,28.50
2022-08-02T14:47:22.903Z,28.60
2022-08-02T14:49:51.155Z,28.70
2022-08-02T14:52:19.797Z,28.70
2022-08-02T14:54:48.179Z,28.80
2022-08-02T14:57:16.433Z,28.70
2022-08-02T14:59:45.917Z,28.60
2022-08-02T15:02:14.843Z,28.80
2022-08-02T15:04:43.995Z,28.80
2022-08-02T15:07:13.866Z,28.90
2022-08-02T15:09:42.234Z,28.60
2022-08-02T15:12:11.799Z,28.50
2022-08-02T15:14:40.446Z,28.30
2022-08-02T15:17:10.771Z,28.10
2022-08-02T15:19:58.966Z,28.00
2022-08-02T15:22:28.867Z,27.70
2022-08-02T15:24:57.171Z,27.80
2022-08-02T15:27:25.661Z,27.90
2022-08-02T15:30:00.287Z,28.00
2022-08-02T15:32:30.474Z,28.20
2022-08-02T15:34:58.769Z,28.60
2022-08-02T15:37:30.963Z,28.90
2022-08-02T15:40:00.172Z,28.90
2022-08-02T15:42:30.668Z,29.00
2022-08-02T15:45:00.298Z,29.10
2022-08-02T15:47:29.816Z,29.10
2022-08-02T15:49:58.614Z,29.00
2022-08-02T15:52:27.171Z,28.90
2022-08-02T15:54:55.570Z,28.70
2022-08-02T15:57:24.113Z,28.70
2022-08-02T15:59:53.324Z,28.80
2022-08-02T16:02:21.590Z,28.70
2022-08-02T16:04:51.245Z,28.70
2022-08-02T16:07:19.458Z,28.70
2022-08-02T16:09:47.583Z,28.80
2022-08-02T16:12:16.090Z,28.70
2022-08-02T16:14:45.502Z,28.60
2022-08-02T16:17:13.677Z,28.50
2022-08-02T16:19:49.130Z,28.50
2022-08-02T16:22:19.994Z,28.30
2022-08-02T16:24:48.172Z,28.40
2022-08-02T16:27:16.255Z,28.30
2022-08-02T16:29:44.577Z,28.20
2022-08-02T16:32:15.165Z,28.00
2022-08-02T16:35:07.660Z,28.00
2022-08-02T16:37:50.546Z,27.60
2022-08-02T16:40:21.037Z,27.40
2022-08-02T16:42:50.844Z,27.40
2022-08-02T16:45:20.959Z,27.50
2022-08-02T16:47:57.396Z,27.60
2022-08-02T16:50:29.453Z,27.50
2022-08-02T16:52:59.222Z,27.30
2022-08-02T16:55:29.117Z,27.20
2022-08-02T16:57:58.815Z,27.00
2022-08-02T17:00:27.178Z,26.90
2022-08-02T17:02:59.304Z,26.70
2022-08-02T17:05:37.579Z,26.60
2022-08-02T17:08:17.000Z,26.50
2022-08-02T17:10:45.846Z,26.40
2022-08-02T17:13:14.366Z,26.30
2022-08-02T17:16:01.122Z,26.20
2022-08-02T17:18:32.529Z,26.20
2022-08-02T17:21:04.177Z,26.00
2022-08-02T17:24:04.194Z,25.90
2022-08-02T17:26:23.081Z,25.80
2022-08-02T17:29:14.465Z,25.70
2022-08-02T17:31:44.351Z,25.60
2022-08-02T17:34:13.625Z,25.40
2022-08-02T17:36:45.125Z,25.40
2022-08-02T17:39:19.338Z,25.20
2022-08-02T17:41:49.093Z,25.20
2022-08-02T17:44:37.648Z,25.10
2022-08-02T17:47:08.769Z,25.00
2022-08-02T17:49:47.772Z,24.90
2022-08-02T17:52:52.003Z,24.90
2022-08-02T17:55:07.114Z,24.70
2022-08-02T17:57:55.922Z,24.60
2022-08-02T18:00:24.711Z,24.50
2022-08-02T18:02:55.401Z,24.30
2022-08-02T18:05:38.998Z,24.20
2022-08-02T18:08:08.784Z,24.10
2022-08-02T18:10:39.376Z,24.00
2022-08-02T18:13:07.712Z,23.90
2022-08-02T18:15:35.945Z,23.80
2022-08-02T18:18:04.192Z,23.70
2022-08-02T18:20:32.342Z,23.70
2022-08-02T18:23:00.572Z,23.60
2022-08-02T18:25:37.771Z,23.50
2022-08-02T18:28:15.501Z,23.40
2022-08-02T18:30:43.849Z,23.30
2022-08-02T18:33:59.366Z,23.20
2022-08-02T18:36:00.347Z,23.00
2022-08-02T18:38:30.345Z,22.90
2022-08-02T18:41:02.316Z,22.80
2022-08-02T18:43:34.578Z,22.70
2022-08-02T18:46:15.740Z,22.50
2022-08-02T18:48:47.074Z,22.50
2022-08-02T18:51:18.718Z,22.30
2022-08-02T18:53:48.944Z,22.10
2022-08-02T18:56:19.629Z,22.00
2022-08-02T18:58:54.551Z,21.80
2022-08-02T19:01:32.184Z,21.70
2022-08-02T19:04:02.579Z,21.60
2022-08-02T19:06:31.051Z,21.50
2022-08-02T19:09:03.541Z,21.30
2022-08-02T19:11:50.097Z,21.20
2022-08-02T19:14:27.482Z,21.00
2022-08-02T19:16:57.805Z,20.90
2022-08-02T19:19:29.225Z,20.70
2022-08-02T19:22:18.598Z,20.50
2022-08-02T19:24:47.219Z,20.30
2022-08-02T19:27:20.727Z,20.10
2022-08-02T19:29:56.026Z,19.90
2022-08-02T19:32:41.531Z,19.80
2022-08-02T19:35:15.198Z,19.70
2022-08-02T19:37:59.117Z,19.50
2022-08-02T19:40:29.005Z,19.40
2022-08-02T19:44:26.242Z,19.30
2022-08-02T19:45:49.065Z,19.20
2022-08-02T19:48:24.546Z,19.10
2022-08-02T19:50:56.212Z,19.00
2022-08-02T19:53:28.868Z,18.90
2022-08-02T19:56:20.728Z,18.70
2022-08-02T19:58:51.434Z,18.60
2022-08-02T20:01:28.082Z,18.50
2022-08-02T20:04:05.894Z,18.40
2022-08-02T20:06:34.149Z,18.30
2022-08-02T20:09:02.401Z,18.20
2022-08-02T20:11:34.869Z,18.20
2022-08-02T20:14:05.190Z,18.10
2022-08-02T20:16:35.446Z,18.00
2022-08-02T20:19:04.180Z,17.90
2022-08-02T20:21:36.546Z,17.90
2022-08-02T20:24:07.141Z,17.70
2022-08-02T20:26:35.763Z,17.70
2022-08-02T20:29:06.270Z,17.60
2022-08-02T20:31:37.909Z,17.50
2022-08-02T20:34:07.225Z,17.40
2022-08-02T20:36:35.630Z,17.40
2022-08-02T20:39:03.721Z,17.30
2022-08-02T20:41:37.145Z,17.30
2022-08-02T20:44:16.144Z,17.20
2022-08-02T20:47:00.626Z,17.10
2022-08-02T20:49:41.511Z,17.00
2022-08-02T20:52:23.038Z,17.00
2022-08-02T20:54:52.542Z,16.90
2022-08-02T20:57:20.661Z,16.80
2022-08-02T21:00:10.155Z,16.70
2022-08-02T21:02:40.018Z,16.70
2022-08-02T21:05:17.259Z,16.60
2022-08-02T21:07:58.956Z,16.60
2022-08-02T21:10:27.060Z,16.50
2022-08-02T21:12:55.152Z,16.40
2022-08-02T21:15:24.616Z,16.40
2022-08-02T21:17:58.962Z,16.30
2022-08-02T21:20:44.241Z,16.20
2022-08-02T21:23:19.947Z,16.10
2022-08-02T21:25:56.819Z,16.00
2022-08-02T21:28:43.592Z,16.00
2022-08-02T21:31:14.876Z,15.90
2022-08-02T21:33:56.855Z,15.80
2022-08-02T21:36:31.240Z,15.80
2022-08-02T21:39:04.798Z,15.70
2022-08-02T21:41:39.625Z,15.70
2022-08-02T21:44:16.403Z,15.60
2022-08-02T21:46:45.754Z,15.60
2022-08-02T21:49:16.674Z,15.50
2022-08-02T21:51:48.882Z,15.40
2022-08-02T21:54:20.412Z,15.40
2022-08-02T21:56:50.173Z,15.30
2022-08-02T21:59:26.132Z,15.30
2022-08-02T22:01:56.778Z,15.20
2022-08-02T22:04:27.182Z,15.10
2022-08-02T22:06:55.817Z,15.10
2022-08-02T22:09:42.313Z,15.10
2022-08-02T22:12:16.643Z,15.00
2022-08-02T22:14:49.697Z,15.00
2022-08-02T22:17:50.920Z,14.90
2022-08-02T22:20:13.684Z,14.90
2022-08-02T22:22:42.146Z,14.80
2022-08-02T22:25:27.318Z,14.80
2022-08-02T22:28:34.750Z,14.80
2022-08-02T22:30:52.631Z,14.70
2022-08-02T22:33:38.960Z,14.70
2022-08-02T22:36:12.230Z,14.60
2022-08-02T22:38:44.393Z,14.60
2022-08-02T22:41:13.183Z,14.50
2022-08-02T22:43:41.661Z,14.50
2022-08-02T22:46:10.227Z,14.50
2022-08-02T22:48:44.011Z,14.40
2022-08-02T22:51:13.660Z,14.40
2022-08-02T22:53:42.213Z,14.30
2022-08-02T22:56:11.056Z,14.30
2022-08-02T23:01:28.521Z,14.30
2022-08-02T23:03:56.850Z,14.30
2022-08-02T23:06:26.377Z,14.20
2022-08-02T23:08:54.567Z,14.20
2022-08-02T23:11:23.316Z,14.20
2022-08-02T23:13:51.449Z,14.20
2022-08-02T23:16:38.047Z,14.20
2022-08-02T23:19:20.095Z,14.10
2022-08-02T23:22:01.684Z,14.10
2022-08-02T23:24:33.173Z,14.00
2022-08-02T23:27:01.970Z,14.00
2022-08-02T23:29:30.133Z,14.00
2022-08-02T23:31:59.003Z,13.90
2022-08-02T23:34:27.429Z,13.90
2022-08-02T23:36:56.946Z,13.80
2022-08-02T23:39:25.199Z,13.80
2022-08-02T23:41:54.794Z,13.80
2022-08-02T23:44:24.068Z,13.70
2022-08-02T23:46:53.385Z,13.70
2022-08-02T23:49:22.120Z,13.80
2022-08-02T23:51:50.822Z,13.70
2022-08-02T23:54:21.154Z,13.70
2022-08-02T23:56:49.454Z,13.70
2022-08-02T23:59:17.883Z,13.60
